Allen, Washington
Current Conditions -  °F | °C
As of 6:35 AM on Sunday 21 Dec 2014 (Local Time) from KBVS Reporting Station
Overcast Overcast  
Wind Chill: 48°   Ceiling: 10000
Heat Index: 48°   Visibility: 10mi
Dew Point: 45°   Wind: 3mph
Humidity: 87%   Direction: 100°E
Pressure: 29.78"   Gusts: NA
Location:  48.5689°N, 122.407°W
Report Text: KBVS 211435Z AUTO 10003KT 10SM OVC100 09/07 A2978 RMK A01 P000
Loading
Personal Weather Stations






























Interactive Weather Map New forecast layout! Learn more

10-Day Weather Forecast

Advertisements
Track Severe Weather on mobile